Thursday, March 23, 2017, 12:19 AM EDT

KGED, Georgetown Sussex Co Airport

Location: Georgetown, DE, United States Lat: 38.683
Local Time: 12:19 AM EDT ( 4:19 GMT) Lon: -75.367
Time Zone: US/Eastern Elev: 52 ft

Show me the last for .
Show Decoded

2017-03-22 23:54 METAR KGED 230354Z AUTO 02005KT 10SM CLR 00/M14 A3048 RMK AO2 SLP321 T00001139 $
                 =
2017-03-22 22:54 METAR KGED 230254Z AUTO 36005KT 10SM CLR 01/M14 A3046 RMK AO2 SLP313 T00111144
                 51031 $ =
2017-03-22 21:54 METAR KGED 230154Z AUTO 36008KT 10SM CLR 02/M14 A3043 RMK AO2 SLP304 T00171144 $
                 =
2017-03-22 20:54 METAR KGED 230054Z AUTO 01009G15KT 10SM CLR 03/M15 A3040 RMK AO2 SLP294
                 T00281150 $ =
2017-03-22 19:54 METAR KGED 222354Z AUTO 01007KT 10SM CLR 03/M14 A3036 RMK AO2 SLP282 T00331144
                 10083 20033 52037 $ =
2017-03-22 18:54 METAR KGED 222254Z AUTO 01010G19KT 10SM CLR 05/M13 A3033 RMK AO2 SLP271
                 T00501133 $ =
2017-03-22 17:54 METAR KGED 222154Z AUTO 02014G19KT 10SM CLR 06/M14 A3029 RMK AO2 SLP257
                 T00611139 $ =
2017-03-22 16:54 METAR KGED 222054Z AUTO 02012G19KT 10SM CLR 07/M13 A3026 RMK AO2 SLP246
                 T00721133 53016 $ =
2017-03-22 15:54 METAR KGED 221954Z AUTO 33009G19KT 10SM CLR 08/M13 A3022 RMK AO2 PK WND
                 03026/1900 SLP235 T00831128 $ =
2017-03-22 14:54 METAR KGED 221854Z AUTO 01012G25KT 10SM CLR 08/M13 A3022 RMK AO2 PK WND
                 35029/1819 SLP233 T00781133 $ =
2017-03-22 13:54 METAR KGED 221754Z AUTO 36014G22KT 10SM CLR 08/M13 A3021 RMK AO2 PK WND
                 36035/1714 SLP230 T00831128 10089 20072 51023 $ =
2017-03-22 12:54 METAR KGED 221654Z AUTO 34012G26KT 300V010 10SM CLR 08/M12 A3019 RMK AO2 PK WND
                 32029/1613 SLP223 T00781122 $ =
2017-03-22 11:54 METAR KGED 221554Z AUTO 33014G25KT 10SM CLR 08/M08 A3017 RMK AO2 PK WND
                 36029/1529 SLP216 T00781078 $ =
2017-03-22 10:54 METAR KGED 221454Z AUTO 33015G26KT 10SM CLR 08/M08 A3014 RMK AO2 PK WND
                 34027/1440 SLP206 T00781078 51041 $ =
2017-03-22 09:54 METAR KGED 221354Z AUTO 33007G28KT 290V360 10SM CLR 08/M06 A3010 RMK AO2 PK WND
                 34028/1346 SLP193 T00781056 $ =
2017-03-22 08:54 METAR KGED 221254Z AUTO 32008G21KT 290V350 10SM CLR 08/M03 A3006 RMK AO2 PK WND
                 33028/1241 SLP179 T00831028 $ =
2017-03-22 07:54 METAR KGED 221154Z AUTO 34008KT 300V360 10SM FEW090 09/M03 A3002 RMK AO2 SLP165
                 T00891033 10117 20089 53036 $ =
2017-03-22 06:54 METAR KGED 221054Z AUTO VRB05KT 10SM BKN070 11/00 A2998 RMK AO2 SLP151 T01060000
                 $ =
2017-03-22 05:54 METAR KGED 220954Z AUTO 34006KT 10SM OVC070 11/02 A2995 RMK AO2 SLP140 T01110022
                 $ =
2017-03-22 04:54 METAR KGED 220854Z AUTO 34004KT 10SM BKN070 OVC090 11/04 A2991 RMK AO2 SLP128
                 T01110039 53000 $ =
2017-03-22 03:54 METAR KGED 220754Z AUTO 31006KT 10SM BKN090 OVC110 11/04 A2989 RMK AO2 SLP122
                 T01110044 $ =
2017-03-22 02:54 METAR KGED 220654Z AUTO 28004KT 10SM OVC095 10/04 A2990 RMK AO2 SLP123 T01000044
                 $ =
2017-03-22 01:54 METAR KGED 220554Z AUTO 28003KT 10SM OVC100 11/04 A2991 RMK AO2 SLP128 T01060044
                 10128 20078 55011 $ =
2017-03-22 00:54 METAR KGED 220454Z AUTO 25003KT 10SM BKN120 11/04 A2991 RMK AO2 SLP128 T01060039
                 401560072 $ =

Support USWX by starting your Amazon purchase here.